createdAt,value
2022-10-17T00:00:56.745Z,70774.81
2022-10-17T00:03:23.622Z,70716.66
2022-10-17T00:05:50.945Z,70733.81
2022-10-17T00:08:19.390Z,70736.75
2022-10-17T00:10:55.866Z,70780.78
2022-10-17T00:13:23.233Z,70718.16
2022-10-17T00:15:50.585Z,70727.63
2022-10-17T00:18:17.954Z,70756.88
2022-10-17T00:20:45.294Z,70712.88
2022-10-17T00:23:12.749Z,70747.13
2022-10-17T00:25:40.612Z,70763.06
2022-10-17T00:28:11.270Z,70794.38
2022-10-17T00:30:39.205Z,70803.22
2022-10-17T00:33:06.817Z,70753.59
2022-10-17T00:35:34.327Z,70761.88
2022-10-17T00:38:01.678Z,70744.44
2022-10-17T00:40:29.000Z,70732.69
2022-10-17T00:42:55.946Z,70730.06
2022-10-17T00:45:31.064Z,70735.13
2022-10-17T00:48:09.445Z,70737.44
2022-10-17T00:50:39.645Z,70690.25
2022-10-17T00:53:09.451Z,70726.28
2022-10-17T00:55:46.339Z,70696.78
2022-10-17T00:58:13.971Z,70703.56
2022-10-17T01:00:44.649Z,70695.31
2022-10-17T01:03:11.742Z,70685.28
2022-10-17T01:05:40.938Z,70675.88
2022-10-17T01:08:09.381Z,70718.38
2022-10-17T01:11:09.608Z,70719.56
2022-10-17T01:13:51.736Z,70717.53
2022-10-17T01:16:56.652Z,70710.16
2022-10-17T01:19:52.403Z,70693.91
2022-10-17T01:22:59.141Z,70741.09
2022-10-17T01:25:46.347Z,70766.44
2022-10-17T01:28:33.485Z,70789.78
2022-10-17T01:31:14.362Z,70765.59
2022-10-17T01:34:12.282Z,70822.84
2022-10-17T01:36:56.960Z,70790.97
2022-10-17T01:39:50.590Z,70782.72
2022-10-17T01:42:23.817Z,70755.56
2022-10-17T01:44:55.466Z,70765.91
2022-10-17T01:47:30.401Z,70739.38
2022-10-17T01:50:03.967Z,70782.16
2022-10-17T01:52:42.635Z,70727.25
2022-10-17T01:55:16.663Z,70753.25
2022-10-17T01:57:51.443Z,70741.44
2022-10-17T02:00:23.423Z,70761.50
2022-10-17T02:03:04.062Z,70716.38
2022-10-17T02:05:41.493Z,70759.19
2022-10-17T02:08:10.523Z,70715.50
2022-10-17T02:11:09.805Z,70754.41
2022-10-17T02:13:56.578Z,70791.00
2022-10-17T02:17:01.463Z,70806.03
2022-10-17T02:20:17.314Z,70773.84
2022-10-17T02:22:51.338Z,70805.13
2022-10-17T02:25:31.555Z,70842.28
2022-10-17T02:28:16.233Z,70831.06
2022-10-17T02:31:02.768Z,70808.94
2022-10-17T02:33:39.441Z,70832.56
2022-10-17T02:36:30.642Z,70874.75
2022-10-17T02:39:00.814Z,70860.00
2022-10-17T02:41:30.220Z,70829.88
2022-10-17T02:44:00.190Z,70821.59
2022-10-17T02:46:30.820Z,70852.03
2022-10-17T02:49:07.271Z,70818.97
2022-10-17T02:51:55.908Z,70826.34
2022-10-17T02:54:40.642Z,70819.84
2022-10-17T02:57:18.670Z,70854.69
2022-10-17T02:59:47.321Z,70857.63
2022-10-17T03:02:14.756Z,70878.28
2022-10-17T03:04:46.536Z,70867.66
2022-10-17T03:07:14.190Z,70841.41
2022-10-17T03:09:41.624Z,70864.13
2022-10-17T03:12:09.109Z,70893.94
2022-10-17T03:14:36.553Z,70839.31
2022-10-17T03:17:04.482Z,70867.66
2022-10-17T03:19:31.883Z,70884.78
2022-10-17T03:21:59.271Z,70844.59
2022-10-17T03:24:26.713Z,70844.31
2022-10-17T03:26:54.177Z,70808.63
2022-10-17T03:29:21.730Z,70745.47
2022-10-17T03:31:49.200Z,70807.13
2022-10-17T03:34:18.804Z,70835.16
2022-10-17T03:36:46.816Z,70808.59
2022-10-17T03:39:14.458Z,70790.91
2022-10-17T03:41:42.137Z,70802.41
2022-10-17T03:44:09.883Z,70793.84
2022-10-17T03:46:37.307Z,70825.75
2022-10-17T03:49:04.968Z,70826.06
2022-10-17T03:51:36.885Z,70779.13
2022-10-17T03:54:09.624Z,70780.88
2022-10-17T03:56:37.382Z,70779.72
2022-10-17T03:59:12.404Z,70779.72
2022-10-17T04:01:40.034Z,70813.97
2022-10-17T04:04:08.541Z,70798.31
2022-10-17T04:06:37.744Z,70843.47
2022-10-17T04:09:07.278Z,70812.78
2022-10-17T04:11:42.318Z,70855.84
2022-10-17T04:14:10.665Z,70834.00
2022-10-17T04:16:39.935Z,70828.09
2022-10-17T04:19:14.405Z,70783.81
2022-10-17T04:21:45.981Z,70868.22
2022-10-17T04:24:14.682Z,70868.50
2022-10-17T04:27:00.780Z,70829.25
2022-10-17T04:29:30.750Z,70823.94
2022-10-17T04:32:09.797Z,70798.28
2022-10-17T04:34:50.495Z,70806.81
2022-10-17T04:37:19.541Z,70830.44
2022-10-17T04:39:49.011Z,70801.78
2022-10-17T04:42:16.345Z,70806.50
2022-10-17T04:44:44.161Z,70779.94
2022-10-17T04:47:14.359Z,70825.69
2022-10-17T04:49:42.850Z,70847.81
2022-10-17T04:52:11.569Z,70805.91
2022-10-17T04:54:46.667Z,70820.34
2022-10-17T04:57:14.929Z,70823.00
2022-10-17T04:59:48.473Z,70815.63
2022-10-17T05:02:47.795Z,70802.19
2022-10-17T05:05:15.859Z,70822.13
2022-10-17T05:07:45.390Z,70823.88
2022-10-17T05:10:17.323Z,70759.22
2022-10-17T05:12:50.880Z,70804.69
2022-10-17T05:15:20.086Z,70784.91
2022-10-17T05:17:47.588Z,70785.78
2022-10-17T05:20:14.969Z,70763.34
2022-10-17T05:22:42.634Z,70813.22
2022-10-17T05:25:11.892Z,70796.06
2022-10-17T05:27:39.289Z,70771.25
2022-10-17T05:30:08.908Z,70763.63
2022-10-17T05:32:38.658Z,70767.75
2022-10-17T05:35:06.575Z,70774.84
2022-10-17T05:37:34.294Z,70727.63
2022-10-17T05:40:03.767Z,70763.63
2022-10-17T05:42:32.118Z,70738.81
2022-10-17T05:44:59.877Z,70775.13
2022-10-17T05:47:28.057Z,70747.66
2022-10-17T05:49:55.650Z,70749.97
2022-10-17T05:52:33.023Z,70723.41
2022-10-17T05:55:08.578Z,70756.75
2022-10-17T05:57:35.900Z,70715.06
2022-10-17T06:00:08.375Z,70808.72
2022-10-17T06:02:53.514Z,70726.28
2022-10-17T06:05:21.726Z,70715.66
2022-10-17T06:07:52.607Z,70749.91
2022-10-17T06:10:21.150Z,70738.34
2022-10-17T06:12:49.786Z,70777.03
2022-10-17T06:15:17.162Z,70745.13
2022-10-17T06:17:49.315Z,70780.00
2022-10-17T06:20:16.722Z,70710.25
2022-10-17T06:22:44.270Z,70770.50
2022-10-17T06:25:17.317Z,70777.00
2022-10-17T06:27:44.744Z,70745.06
2022-10-17T06:30:12.803Z,70768.41
2022-10-17T06:32:40.428Z,70729.38
2022-10-17T06:35:08.240Z,70720.50
2022-10-17T06:37:37.653Z,70782.25
2022-10-17T06:40:10.429Z,70779.53
2022-10-17T06:42:39.394Z,70780.69
2022-10-17T06:45:25.165Z,70743.78
2022-10-17T06:48:10.974Z,70785.72
2022-10-17T06:50:51.778Z,70757.31
2022-10-17T06:53:22.852Z,70769.72
2022-10-17T06:56:11.540Z,70765.88
2022-10-17T06:58:47.610Z,70786.22
2022-10-17T07:01:31.871Z,70775.28
2022-10-17T07:04:01.406Z,70779.09
2022-10-17T07:06:30.288Z,70756.00
2022-10-17T07:09:02.684Z,70801.19
2022-10-17T07:11:30.267Z,70826.00
2022-10-17T07:13:57.615Z,70821.56
2022-10-17T07:16:25.057Z,70857.63
2022-10-17T07:19:01.226Z,70844.84
2022-10-17T07:21:36.617Z,70793.94
2022-10-17T07:24:07.518Z,70823.78
2022-10-17T07:26:35.230Z,70858.69
2022-10-17T07:29:02.836Z,70795.31
2022-10-17T07:31:56.185Z,70879.88
2022-10-17T07:34:27.442Z,70865.59
2022-10-17T07:36:55.007Z,70874.72
2022-10-17T07:39:22.795Z,70909.94
2022-10-17T07:41:50.822Z,70885.00
2022-10-17T07:44:19.090Z,70872.56
2022-10-17T07:46:50.381Z,70895.88
2022-10-17T07:49:19.437Z,70906.75
2022-10-17T07:51:49.368Z,70908.19
2022-10-17T07:54:16.716Z,70924.72
2022-10-17T07:56:44.104Z,70942.09
2022-10-17T07:59:11.464Z,70979.38
2022-10-17T08:01:38.801Z,70974.56
2022-10-17T08:04:06.201Z,70990.84
2022-10-17T08:06:33.488Z,70894.41
2022-10-17T08:09:01.906Z,71033.63
2022-10-17T08:11:29.288Z,71035.06
2022-10-17T08:13:56.943Z,71051.28
2022-10-17T08:16:24.350Z,71076.66
2022-10-17T08:18:51.690Z,71091.41
2022-10-17T08:21:19.074Z,71062.25
2022-10-17T08:23:46.470Z,71130.50
2022-10-17T08:26:17.203Z,71122.66
2022-10-17T08:28:44.650Z,71152.28
2022-10-17T08:31:20.012Z,71164.72
2022-10-17T08:33:49.040Z,71162.88
2022-10-17T08:36:18.930Z,71146.28
2022-10-17T08:38:51.672Z,71183.38
2022-10-17T08:41:35.759Z,71163.66
2022-10-17T08:44:12.995Z,71178.47
2022-10-17T08:46:43.412Z,71208.44
2022-10-17T08:49:33.542Z,71190.00
2022-10-17T08:52:07.726Z,71200.41
2022-10-17T08:54:43.122Z,71238.09
2022-10-17T08:57:16.144Z,71274.00
2022-10-17T08:59:45.833Z,71230.25
2022-10-17T09:02:57.456Z,71251.63
2022-10-17T09:05:43.108Z,71208.13
2022-10-17T09:08:24.704Z,71294.53
2022-10-17T09:11:00.436Z,71268.88
2022-10-17T09:13:50.217Z,71278.63
2022-10-17T09:16:37.245Z,71286.34
2022-10-17T09:19:16.797Z,71319.03
2022-10-17T09:21:46.776Z,71266.19
2022-10-17T09:24:25.258Z,71380.88
2022-10-17T09:26:54.654Z,71388.19
2022-10-17T09:29:30.875Z,71433.78
2022-10-17T09:32:11.446Z,71544.59
2022-10-17T09:34:39.043Z,71700.13
2022-10-17T09:37:16.209Z,71857.59
2022-10-17T09:39:44.613Z,72064.78
2022-10-17T09:42:19.566Z,72177.13
2022-10-17T09:45:01.618Z,72195.13
2022-10-17T09:47:41.454Z,72266.50
2022-10-17T09:50:31.354Z,72363.25
2022-10-17T09:53:09.324Z,72466.47
2022-10-17T09:55:43.525Z,72541.69
2022-10-17T09:58:12.361Z,72585.31
2022-10-17T10:00:45.821Z,72555.81
2022-10-17T10:03:23.526Z,72478.25
2022-10-17T10:06:05.279Z,72546.47
2022-10-17T10:08:36.079Z,72607.72
2022-10-17T10:11:07.931Z,72727.06
2022-10-17T10:13:37.069Z,72794.19
2022-10-17T10:16:31.457Z,72858.91
2022-10-17T10:18:59.480Z,72940.03
2022-10-17T10:21:28.133Z,72885.19
2022-10-17T10:24:10.706Z,73042.81
2022-10-17T10:26:44.923Z,73092.31
2022-10-17T10:29:29.053Z,73104.19
2022-10-17T10:31:58.766Z,73110.78
2022-10-17T10:34:31.263Z,73215.03
2022-10-17T10:37:20.374Z,73151.41
2022-10-17T10:39:53.638Z,73171.97
2022-10-17T10:42:28.799Z,73273.00
2022-10-17T10:45:03.582Z,73363.69
2022-10-17T10:47:32.960Z,73423.19
2022-10-17T10:50:24.639Z,73400.69
2022-10-17T10:52:56.994Z,73529.34
2022-10-17T10:55:41.787Z,73426.59
2022-10-17T10:58:44.160Z,73376.72
2022-10-17T11:01:48.798Z,73304.31
2022-10-17T11:04:21.938Z,73376.69
2022-10-17T11:06:52.761Z,73441.59
2022-10-17T11:09:45.615Z,73563.03
2022-10-17T11:12:21.736Z,73635.81
2022-10-17T11:15:03.947Z,73642.84
2022-10-17T11:17:43.058Z,73633.34
2022-10-17T11:20:19.305Z,73718.78
2022-10-17T11:22:51.561Z,73799.88
2022-10-17T11:25:32.055Z,73820.78
2022-10-17T11:28:04.683Z,73733.81
2022-10-17T11:33:42.394Z,73542.50
2022-10-17T11:36:11.086Z,73694.28
2022-10-17T11:39:00.748Z,73711.19
2022-10-17T11:41:37.777Z,73617.69
2022-10-17T11:44:20.166Z,73663.34
2022-10-17T11:46:53.692Z,73526.72
2022-10-17T11:52:06.376Z,73499.75
2022-10-17T11:54:50.786Z,73500.41
2022-10-17T11:57:26.890Z,73487.66
2022-10-17T12:00:06.316Z,73519.69
2022-10-17T12:02:41.773Z,73660.00
2022-10-17T12:05:55.832Z,73622.81
2022-10-17T12:08:49.704Z,73600.00
2022-10-17T12:11:25.652Z,73679.91
2022-10-17T12:13:56.233Z,73610.28
2022-10-17T12:16:23.649Z,73426.16
2022-10-17T12:19:21.738Z,72983.69
2022-10-17T12:22:06.091Z,72760.16
2022-10-17T12:24:52.619Z,72695.81
2022-10-17T12:27:29.074Z,72621.25
2022-10-17T12:30:15.737Z,72542.72
2022-10-17T12:33:23.991Z,72452.31
2022-10-17T12:36:11.990Z,72403.88
2022-10-17T12:38:39.511Z,72291.41
2022-10-17T12:41:07.307Z,72338.94
2022-10-17T12:43:45.243Z,72341.06
2022-10-17T12:46:13.241Z,72315.59
2022-10-17T12:48:40.530Z,72313.47
2022-10-17T12:51:35.731Z,72313.56
2022-10-17T12:54:16.112Z,72298.09
2022-10-17T12:56:46.679Z,72305.00
2022-10-17T12:59:19.553Z,72287.88
2022-10-17T13:01:50.419Z,72216.03
2022-10-17T13:04:19.285Z,72271.25
2022-10-17T13:06:58.877Z,72227.47
2022-10-17T13:09:29.465Z,72203.31
2022-10-17T13:11:59.961Z,72166.53
2022-10-17T13:14:28.698Z,72183.97
2022-10-17T13:17:07.412Z,72166.66
2022-10-17T13:19:43.779Z,72140.97
2022-10-17T13:22:17.152Z,72118.88
2022-10-17T13:24:45.229Z,72120.75
2022-10-17T13:27:34.140Z,72099.81
2022-10-17T13:30:21.158Z,72063.31
2022-10-17T13:32:48.504Z,72056.84
2022-10-17T13:35:36.565Z,72070.69
2022-10-17T13:38:14.575Z,72068.34
2022-10-17T13:40:50.004Z,72078.25
2022-10-17T13:43:24.338Z,72000.06
2022-10-17T13:46:25.595Z,71987.00
2022-10-17T13:48:53.392Z,72051.78
2022-10-17T13:51:21.632Z,71976.41
2022-10-17T13:53:49.108Z,71944.81
2022-10-17T13:56:28.486Z,71913.75
2022-10-17T13:59:00.020Z,71935.38
2022-10-17T14:01:29.174Z,71930.84
2022-10-17T14:04:08.411Z,71944.22
2022-10-17T14:06:49.336Z,72053.66
2022-10-17T14:09:30.730Z,71892.31
2022-10-17T14:12:20.497Z,71878.09
2022-10-17T14:15:09.687Z,71888.06
2022-10-17T14:17:38.583Z,71820.28
2022-10-17T14:20:40.781Z,71864.38
2022-10-17T14:23:21.553Z,71827.38
2022-10-17T14:25:47.177Z,71783.59
2022-10-17T14:28:15.890Z,71780.94
2022-10-17T14:31:02.969Z,71747.88
2022-10-17T14:33:32.191Z,71727.09
2022-10-17T14:36:01.765Z,71691.38
2022-10-17T14:38:30.237Z,71749.94
2022-10-17T14:41:30.255Z,71679.47
2022-10-17T14:44:13.168Z,71673.94
2022-10-17T14:46:50.453Z,71689.19
2022-10-17T14:49:36.604Z,71660.81
2022-10-17T14:52:18.668Z,71701.13
2022-10-17T14:54:50.327Z,71706.22
2022-10-17T14:57:27.188Z,71672.63
2022-10-17T14:59:56.547Z,71631.44
2022-10-17T15:02:26.724Z,71628.56
2022-10-17T15:04:54.987Z,71593.41
2022-10-17T15:07:23.746Z,71592.59
2022-10-17T15:09:52.719Z,71617.13
2022-10-17T15:12:23.275Z,71578.72
2022-10-17T15:14:51.843Z,71529.84
2022-10-17T15:17:24.276Z,71526.41
2022-10-17T15:19:51.793Z,71534.28
2022-10-17T15:22:19.557Z,71528.31
2022-10-17T15:24:47.062Z,71494.06
2022-10-17T15:27:20.215Z,71467.31
2022-10-17T15:29:48.548Z,71508.75
2022-10-17T15:32:16.451Z,71491.19
2022-10-17T15:34:44.376Z,71494.53
2022-10-17T15:37:22.191Z,71456.44
2022-10-17T15:39:54.596Z,71499.09
2022-10-17T15:42:31.561Z,71423.69
2022-10-17T15:44:59.243Z,71448.81
2022-10-17T15:47:28.924Z,71445.91
2022-10-17T15:49:56.889Z,71469.78
2022-10-17T15:52:24.762Z,71427.28
2022-10-17T15:54:52.449Z,71376.41
2022-10-17T15:57:29.349Z,71390.19
2022-10-17T15:59:59.373Z,71353.91
2022-10-17T16:02:27.068Z,71363.78
2022-10-17T16:04:54.483Z,71363.84
2022-10-17T16:07:21.939Z,71355.88
2022-10-17T16:09:49.405Z,71363.91
2022-10-17T16:12:28.352Z,71344.00
2022-10-17T16:14:56.599Z,71327.72
2022-10-17T16:17:23.872Z,71301.00
2022-10-17T16:19:51.339Z,71290.66
2022-10-17T16:22:32.546Z,71289.56
2022-10-17T16:25:07.770Z,71293.16
2022-10-17T16:27:36.968Z,71264.69
2022-10-17T16:30:06.846Z,71298.06
2022-10-17T16:32:34.476Z,71246.63
2022-10-17T16:35:02.001Z,71248.16
2022-10-17T16:37:29.469Z,71264.84
2022-10-17T16:39:56.885Z,71214.28
2022-10-17T16:42:24.537Z,71292.56
2022-10-17T16:44:52.022Z,71197.75
2022-10-17T16:47:19.843Z,71240.56
2022-10-17T16:49:47.184Z,71236.72
2022-10-17T16:52:15.422Z,71222.09
2022-10-17T16:54:42.761Z,71250.66
2022-10-17T16:57:10.457Z,71225.03
2022-10-17T16:59:37.841Z,71237.56
2022-10-17T17:02:05.271Z,71250.41
2022-10-17T17:04:32.766Z,71250.78
2022-10-17T17:07:00.295Z,71216.03
2022-10-17T17:09:28.063Z,71184.84
2022-10-17T17:11:55.609Z,71198.53
2022-10-17T17:14:23.000Z,71189.31
2022-10-17T17:16:50.673Z,71151.06
2022-10-17T17:19:18.982Z,71190.91
2022-10-17T17:21:52.639Z,71171.34
2022-10-17T17:24:21.511Z,71169.88
2022-10-17T17:26:56.446Z,71126.22
2022-10-17T17:29:24.983Z,71152.44
2022-10-17T17:31:52.602Z,71143.28
2022-10-17T17:34:19.962Z,71132.63
2022-10-17T17:36:47.363Z,71097.31
2022-10-17T17:39:15.802Z,71137.19
2022-10-17T17:41:44.383Z,71049.13
2022-10-17T17:44:16.543Z,71090.97
2022-10-17T17:46:45.271Z,71094.81
2022-10-17T17:49:12.889Z,71094.56
2022-10-17T17:51:41.909Z,71071.41
2022-10-17T17:54:12.611Z,71104.09
2022-10-17T17:56:40.873Z,71079.19
2022-10-17T17:59:10.531Z,71097.66
2022-10-17T18:01:38.964Z,71053.13
2022-10-17T18:04:08.812Z,71043.31
2022-10-17T18:06:37.896Z,71061.50
2022-10-17T18:09:06.389Z,71069.22
2022-10-17T18:11:34.488Z,71074.91
2022-10-17T18:14:05.698Z,71057.69
2022-10-17T18:16:35.344Z,71058.00
2022-10-17T18:19:06.637Z,71046.69
2022-10-17T18:21:35.236Z,71044.94
2022-10-17T18:24:04.527Z,71038.09
2022-10-17T18:26:32.344Z,71064.50
2022-10-17T18:28:59.849Z,71056.19
2022-10-17T18:31:35.862Z,71012.28
2022-10-17T18:34:04.869Z,71057.94
2022-10-17T18:36:33.877Z,71025.34
2022-10-17T18:39:02.123Z,71062.78
2022-10-17T18:41:29.933Z,71056.84
2022-10-17T18:43:58.028Z,70988.97
2022-10-17T18:46:27.935Z,71028.31
2022-10-17T18:48:55.763Z,71052.09
2022-10-17T18:51:24.997Z,71028.69
2022-10-17T18:53:58.666Z,71025.19
2022-10-17T18:56:26.911Z,71065.88
2022-10-17T18:58:54.874Z,71021.72
2022-10-17T19:01:25.134Z,71015.19
2022-10-17T19:03:56.120Z,71006.63
2022-10-17T19:06:26.416Z,71007.88
2022-10-17T19:08:53.917Z,70987.16
2022-10-17T19:11:26.904Z,71025.13
2022-10-17T19:13:57.613Z,70964.91
2022-10-17T19:16:31.661Z,70994.31
2022-10-17T19:19:16.121Z,70930.91
2022-10-17T19:21:44.311Z,70937.56
2022-10-17T19:24:15.282Z,70896.97
2022-10-17T19:26:44.081Z,70935.22
2022-10-17T19:29:16.285Z,70922.19
2022-10-17T19:31:44.596Z,70924.63
2022-10-17T19:34:13.151Z,70938.91
2022-10-17T19:36:41.264Z,70890.69
2022-10-17T19:39:13.101Z,70913.50
2022-10-17T19:41:42.400Z,70875.94
2022-10-17T19:44:09.813Z,70897.00
2022-10-17T19:46:38.198Z,70877.81
2022-10-17T19:49:08.640Z,70850.25
2022-10-17T19:51:36.160Z,70894.69
2022-10-17T19:54:03.756Z,70885.81
2022-10-17T19:56:36.767Z,70852.94
2022-10-17T19:59:06.297Z,70870.22
2022-10-17T20:01:38.631Z,70869.66
2022-10-17T20:04:08.454Z,70832.03
2022-10-17T20:06:36.285Z,70839.78
2022-10-17T20:09:05.341Z,70817.38
2022-10-17T20:11:33.158Z,70802.59
2022-10-17T20:14:01.826Z,70829.50
2022-10-17T20:16:31.487Z,70800.81
2022-10-17T20:19:04.440Z,70795.56
2022-10-17T20:21:34.823Z,70816.91
2022-10-17T20:24:04.483Z,70835.00
2022-10-17T20:26:38.157Z,70803.94
2022-10-17T20:29:13.294Z,70774.41
2022-10-17T20:31:43.025Z,70776.25
2022-10-17T20:34:13.750Z,70778.66
2022-10-17T20:36:41.417Z,70773.41
2022-10-17T20:39:10.012Z,70784.66
2022-10-17T20:41:37.449Z,70731.97
2022-10-17T20:44:06.807Z,70781.31
2022-10-17T20:46:37.382Z,70776.28
2022-10-17T20:49:11.182Z,70756.13
2022-10-17T20:51:38.722Z,70750.75
2022-10-17T20:54:06.061Z,70770.91
2022-10-17T20:56:35.180Z,70758.53
2022-10-17T20:59:08.373Z,70778.66
2022-10-17T21:01:36.582Z,70802.34
2022-10-17T21:04:26.823Z,70778.63
2022-10-17T21:06:52.192Z,70750.75
2022-10-17T21:09:20.194Z,70780.34
2022-10-17T21:11:48.437Z,70751.94
2022-10-17T21:14:16.780Z,70745.75
2022-10-17T21:16:44.172Z,70783.09
2022-10-17T21:19:12.847Z,70779.84
2022-10-17T21:21:45.667Z,70758.56
2022-10-17T21:24:17.312Z,70769.22
2022-10-17T21:26:45.830Z,70775.47
2022-10-17T21:29:14.195Z,70779.34
2022-10-17T21:31:43.721Z,70782.91
2022-10-17T21:34:20.972Z,70750.94
2022-10-17T21:36:48.829Z,70776.91
2022-10-17T21:39:16.782Z,70753.16
2022-10-17T21:41:44.954Z,70754.66
2022-10-17T21:44:14.971Z,70768.56
2022-10-17T21:46:43.082Z,70756.13
2022-10-17T21:49:12.611Z,70760.91
2022-10-17T21:51:40.662Z,70783.41
2022-10-17T21:54:08.606Z,70768.34
2022-10-17T21:56:36.514Z,70776.44
2022-10-17T21:59:05.037Z,70764.56
2022-10-17T22:01:35.803Z,70750.34
2022-10-17T22:04:05.542Z,70731.41
2022-10-17T22:06:40.274Z,70753.56
2022-10-17T22:09:12.218Z,70813.06
2022-10-17T22:11:39.793Z,70779.91
2022-10-17T22:14:11.152Z,70794.75
2022-10-17T22:16:39.523Z,70742.69
2022-10-17T22:19:08.036Z,70756.81
2022-10-17T22:21:37.517Z,70764.81
2022-10-17T22:24:07.990Z,70747.31
2022-10-17T22:26:37.212Z,70758.03
2022-10-17T22:29:06.587Z,70800.09
2022-10-17T22:31:35.083Z,70768.44
2022-10-17T22:34:04.448Z,70722.00
2022-10-17T22:36:33.498Z,70743.34
2022-10-17T22:39:00.865Z,70764.66
2022-10-17T22:41:28.218Z,70786.19
2022-10-17T22:43:55.574Z,70723.59
2022-10-17T22:46:23.308Z,70771.81
2022-10-17T22:48:50.760Z,70727.19
2022-10-17T22:51:18.247Z,70696.97
2022-10-17T22:53:45.847Z,70741.97
2022-10-17T22:56:16.471Z,70699.72
2022-10-17T22:58:44.006Z,70722.19
2022-10-17T23:01:16.924Z,70765.28
2022-10-17T23:03:44.757Z,70746.97
2022-10-17T23:06:12.487Z,70710.28
2022-10-17T23:08:40.659Z,70758.81
2022-10-17T23:11:09.061Z,70686.72
2022-10-17T23:13:36.792Z,70721.66
2022-10-17T23:16:04.457Z,70691.19
2022-10-17T23:21:04.730Z,70700.38
2022-10-17T23:23:32.081Z,70757.09
2022-10-17T23:26:13.625Z,70705.09
2022-10-17T23:28:41.798Z,70716.97
2022-10-17T23:31:10.214Z,70670.91
2022-10-17T23:33:37.659Z,70697.53
2022-10-17T23:36:05.822Z,70675.06
2022-10-17T23:38:33.178Z,70719.13
2022-10-17T23:41:00.461Z,70676.25
2022-10-17T23:43:28.232Z,70701.09
2022-10-17T23:45:55.549Z,70703.44
2022-10-17T23:48:23.226Z,70661.75
2022-10-17T23:50:50.681Z,70699.28
2022-10-17T23:53:18.041Z,70698.44
2022-10-17T23:55:45.395Z,70701.09
2022-10-17T23:58:12.740Z,70661.53
